Airfield :
LOGIN :

Register | Disclaimer

   EN    FR    IT 

 










Legend :    VFR   Marginal VFR   IFR   Intensive IFR   Very Intensive IFR
Visi :
Ceiling :
>= 8 km
>= 3000ft
5 to 8 km
1000 to 3000 ft
1500m to 5 km
500 to 1000 ft
800 to 1500m
200 to 500 ft
< 800m
< 200 ft
Symbols :   Thunderstorms  Fog  Heavy snow  Heavy precipitations  Wind > 20 kt
SIGMETs :     Misc.  Thunderstorms  Icing  Turbulence  Mountain Waves  Volcanic Ashes






- Airport Elevation : 789 ft
- IATA code : BZO


LIPB - Bolzano

CURRENT METAR :
  • 221350Z VRB07KT CAVOK 30/15 Q1010

EXPIRED METARs :
  • 221250Z VRB01KT 9999 FEW100 28/13 Q1011
  • 221150Z 27005KT 160V320 9999 -RA BKN100 27/15 Q1012

TAF TAF LIPB
Valid from the 22 at 12:00 until the 23 at 12:00 UTC


221100Z 2212/2312 VRB05KT 9999 SCT110
PROB30
TEMPO 2215/2219 TSRA
TEMPO 2308/2312 SHRA BKN010



MET'MAP, your aeronautical weather chart ! - Copyright ORBIFLY December 2007 - Disclaimer

ORBIFLY MET'MAP TEAM :

Programming & Development : Alexandra Zaïnal
Original concept : Baudouin d'Aumeries
Technical & hardware support : Manuel Goepfert
Assistance : Marc-Olivier Méhu

Contact : metmap@orbifly.com




SOURCES & CREDITS :

   NOAA